sensor_id;sensor_type;location;lat;lon;timestamp;temperature;humidity
13944;DHT22;7044;53.286;8.534;2022-07-05T00:01:27;14.80;99.90
13944;DHT22;7044;53.286;8.534;2022-07-05T00:03:55;15.10;99.90
13944;DHT22;7044;53.286;8.534;2022-07-05T00:06:22;15.30;99.90
13944;DHT22;7044;53.286;8.534;2022-07-05T00:08:49;15.00;99.90
13944;DHT22;7044;53.286;8.534;2022-07-05T00:11:15;14.90;99.90
13944;DHT22;7044;53.286;8.534;2022-07-05T00:13:42;14.60;99.90
13944;DHT22;7044;53.286;8.534;2022-07-05T00:16:09;14.80;99.90
13944;DHT22;7044;53.286;8.534;2022-07-05T00:18:36;15.00;99.90
13944;DHT22;7044;53.286;8.534;2022-07-05T00:21:04;14.80;99.90
13944;DHT22;7044;53.286;8.534;2022-07-05T00:23:31;14.50;99.90
13944;DHT22;7044;53.286;8.534;2022-07-05T00:25:58;14.70;99.90
13944;DHT22;7044;53.286;8.534;2022-07-05T00:28:24;14.60;99.90
13944;DHT22;7044;53.286;8.534;2022-07-05T00:30:51;14.60;99.90
13944;DHT22;7044;53.286;8.534;2022-07-05T00:33:18;14.70;99.90
13944;DHT22;7044;53.286;8.534;2022-07-05T00:35:45;14.90;99.90
13944;DHT22;7044;53.286;8.534;2022-07-05T00:38:13;14.70;99.90
13944;DHT22;7044;53.286;8.534;2022-07-05T00:40:42;14.70;99.90
13944;DHT22;7044;53.286;8.534;2022-07-05T00:43:08;14.50;99.90
13944;DHT22;7044;53.286;8.534;2022-07-05T00:45:35;14.70;99.90
13944;DHT22;7044;53.286;8.534;2022-07-05T00:48:02;14.50;99.90
13944;DHT22;7044;53.286;8.534;2022-07-05T00:50:29;14.40;99.90
13944;DHT22;7044;53.286;8.534;2022-07-05T00:52:56;14.40;99.90
13944;DHT22;7044;53.286;8.534;2022-07-05T00:55:25;14.10;99.90
13944;DHT22;7044;53.286;8.534;2022-07-05T00:57:52;14.30;99.90
13944;DHT22;7044;53.286;8.534;2022-07-05T01:00:20;14.40;99.90
13944;DHT22;7044;53.286;8.534;2022-07-05T01:02:47;14.30;99.90
13944;DHT22;7044;53.286;8.534;2022-07-05T01:05:14;14.20;99.90
13944;DHT22;7044;53.286;8.534;2022-07-05T01:07:41;14.20;99.90
13944;DHT22;7044;53.286;8.534;2022-07-05T01:10:09;14.00;99.90
13944;DHT22;7044;53.286;8.534;2022-07-05T01:12:39;14.10;99.90
13944;DHT22;7044;53.286;8.534;2022-07-05T01:15:07;14.20;99.90
13944;DHT22;7044;53.286;8.534;2022-07-05T01:17:34;14.20;99.90
13944;DHT22;7044;53.286;8.534;2022-07-05T01:20:04;14.20;99.90
13944;DHT22;7044;53.286;8.534;2022-07-05T01:22:49;14.10;99.90
13944;DHT22;7044;53.286;8.534;2022-07-05T01:25:19;14.20;99.90
13944;DHT22;7044;53.286;8.534;2022-07-05T01:27:47;14.10;99.90
13944;DHT22;7044;53.286;8.534;2022-07-05T01:30:14;14.10;99.90
13944;DHT22;7044;53.286;8.534;2022-07-05T01:32:41;12.40;99.90
13944;DHT22;7044;53.286;8.534;2022-07-05T01:35:09;14.00;99.90
13944;DHT22;7044;53.286;8.534;2022-07-05T01:37:38;13.90;99.90
13944;DHT22;7044;53.286;8.534;2022-07-05T01:40:06;13.80;99.90
13944;DHT22;7044;53.286;8.534;2022-07-05T01:42:33;13.90;99.90
13944;DHT22;7044;53.286;8.534;2022-07-05T01:45:00;13.90;99.90
13944;DHT22;7044;53.286;8.534;2022-07-05T01:47:27;13.80;99.90
13944;DHT22;7044;53.286;8.534;2022-07-05T01:49:57;14.00;99.90
13944;DHT22;7044;53.286;8.534;2022-07-05T01:52:24;13.70;99.90
13944;DHT22;7044;53.286;8.534;2022-07-05T01:54:53;13.70;99.90
13944;DHT22;7044;53.286;8.534;2022-07-05T01:57:20;13.80;99.90
13944;DHT22;7044;53.286;8.534;2022-07-05T01:59:47;13.50;99.90
13944;DHT22;7044;53.286;8.534;2022-07-05T02:02:14;13.80;99.90
13944;DHT22;7044;53.286;8.534;2022-07-05T02:04:41;13.90;99.90
13944;DHT22;7044;53.286;8.534;2022-07-05T02:07:09;13.80;99.90
13944;DHT22;7044;53.286;8.534;2022-07-05T02:09:36;14.90;99.90
13944;DHT22;7044;53.286;8.534;2022-07-05T02:12:05;14.10;99.90
13944;DHT22;7044;53.286;8.534;2022-07-05T02:14:33;14.20;99.90
13944;DHT22;7044;53.286;8.534;2022-07-05T02:16:59;14.10;99.90
13944;DHT22;7044;53.286;8.534;2022-07-05T02:19:26;14.10;99.90
13944;DHT22;7044;53.286;8.534;2022-07-05T02:21:54;15.50;99.90
13944;DHT22;7044;53.286;8.534;2022-07-05T02:24:21;14.10;99.90
13944;DHT22;7044;53.286;8.534;2022-07-05T02:26:48;14.10;99.90
13944;DHT22;7044;53.286;8.534;2022-07-05T02:34:10;14.10;99.90
13944;DHT22;7044;53.286;8.534;2022-07-05T02:36:38;14.10;99.90
13944;DHT22;7044;53.286;8.534;2022-07-05T02:39:04;14.20;99.90
13944;DHT22;7044;53.286;8.534;2022-07-05T02:41:31;14.10;99.90
13944;DHT22;7044;53.286;8.534;2022-07-05T02:43:58;14.10;99.90
13944;DHT22;7044;53.286;8.534;2022-07-05T02:46:26;14.10;99.90
13944;DHT22;7044;53.286;8.534;2022-07-05T02:48:53;14.20;99.90
13944;DHT22;7044;53.286;8.534;2022-07-05T02:51:20;14.20;99.90
13944;DHT22;7044;53.286;8.534;2022-07-05T02:53:46;16.20;99.90
13944;DHT22;7044;53.286;8.534;2022-07-05T02:56:13;14.20;99.90
13944;DHT22;7044;53.286;8.534;2022-07-05T02:58:40;14.10;99.90
13944;DHT22;7044;53.286;8.534;2022-07-05T03:01:07;14.00;99.90
13944;DHT22;7044;53.286;8.534;2022-07-05T03:03:35;14.20;99.90
13944;DHT22;7044;53.286;8.534;2022-07-05T03:06:02;13.90;99.90
13944;DHT22;7044;53.286;8.534;2022-07-05T03:08:28;14.00;99.90
13944;DHT22;7044;53.286;8.534;2022-07-05T03:10:55;13.80;99.90
13944;DHT22;7044;53.286;8.534;2022-07-05T03:13:22;13.70;99.90
13944;DHT22;7044;53.286;8.534;2022-07-05T03:15:49;13.60;99.90
13944;DHT22;7044;53.286;8.534;2022-07-05T03:18:16;13.60;99.90
13944;DHT22;7044;53.286;8.534;2022-07-05T03:20:44;13.60;99.90
13944;DHT22;7044;53.286;8.534;2022-07-05T03:23:11;14.20;99.90
13944;DHT22;7044;53.286;8.534;2022-07-05T03:25:37;13.80;99.90
13944;DHT22;7044;53.286;8.534;2022-07-05T03:28:04;13.70;99.90
13944;DHT22;7044;53.286;8.534;2022-07-05T03:30:31;13.80;99.90
13944;DHT22;7044;53.286;8.534;2022-07-05T03:32:58;14.00;99.90
13944;DHT22;7044;53.286;8.534;2022-07-05T03:35:26;13.80;99.90
13944;DHT22;7044;53.286;8.534;2022-07-05T03:37:54;13.60;99.90
13944;DHT22;7044;53.286;8.534;2022-07-05T03:40:21;13.80;99.90
13944;DHT22;7044;53.286;8.534;2022-07-05T03:42:48;13.80;99.90
13944;DHT22;7044;53.286;8.534;2022-07-05T03:45:15;13.70;99.90
13944;DHT22;7044;53.286;8.534;2022-07-05T03:47:42;13.80;99.90
13944;DHT22;7044;53.286;8.534;2022-07-05T03:50:09;13.80;99.90
13944;DHT22;7044;53.286;8.534;2022-07-05T03:52:36;13.80;99.90
13944;DHT22;7044;53.286;8.534;2022-07-05T03:55:04;13.80;99.90
13944;DHT22;7044;53.286;8.534;2022-07-05T03:57:31;13.50;99.90
13944;DHT22;7044;53.286;8.534;2022-07-05T03:59:58;13.00;99.90
13944;DHT22;7044;53.286;8.534;2022-07-05T04:02:25;13.50;99.90
13944;DHT22;7044;53.286;8.534;2022-07-05T04:04:51;13.20;99.90
13944;DHT22;7044;53.286;8.534;2022-07-05T04:07:18;13.30;99.90
13944;DHT22;7044;53.286;8.534;2022-07-05T04:09:45;13.40;99.90
13944;DHT22;7044;53.286;8.534;2022-07-05T04:12:13;13.40;99.90
13944;DHT22;7044;53.286;8.534;2022-07-05T04:14:40;13.40;99.90
13944;DHT22;7044;53.286;8.534;2022-07-05T04:17:07;13.40;99.90
13944;DHT22;7044;53.286;8.534;2022-07-05T04:19:34;13.50;99.90
13944;DHT22;7044;53.286;8.534;2022-07-05T04:22:00;13.60;99.90
13944;DHT22;7044;53.286;8.534;2022-07-05T04:24:27;13.50;99.90
13944;DHT22;7044;53.286;8.534;2022-07-05T04:26:54;15.60;99.90
13944;DHT22;7044;53.286;8.534;2022-07-05T04:29:22;13.50;99.90
13944;DHT22;7044;53.286;8.534;2022-07-05T04:31:49;13.50;99.90
13944;DHT22;7044;53.286;8.534;2022-07-05T04:34:16;14.40;99.90
13944;DHT22;7044;53.286;8.534;2022-07-05T04:36:43;13.50;99.90
13944;DHT22;7044;53.286;8.534;2022-07-05T04:39:10;13.70;99.90
13944;DHT22;7044;53.286;8.534;2022-07-05T04:41:37;13.70;99.90
13944;DHT22;7044;53.286;8.534;2022-07-05T04:44:04;14.10;99.90
13944;DHT22;7044;53.286;8.534;2022-07-05T04:46:32;14.00;99.90
13944;DHT22;7044;53.286;8.534;2022-07-05T04:48:59;14.00;99.90
13944;DHT22;7044;53.286;8.534;2022-07-05T04:51:25;14.20;99.90
13944;DHT22;7044;53.286;8.534;2022-07-05T04:53:52;14.20;99.90
13944;DHT22;7044;53.286;8.534;2022-07-05T04:56:19;14.20;99.90
13944;DHT22;7044;53.286;8.534;2022-07-05T04:58:46;14.30;99.90
13944;DHT22;7044;53.286;8.534;2022-07-05T05:01:12;14.40;99.90
13944;DHT22;7044;53.286;8.534;2022-07-05T05:03:40;14.40;99.90
13944;DHT22;7044;53.286;8.534;2022-07-05T05:06:07;14.50;99.90
13944;DHT22;7044;53.286;8.534;2022-07-05T05:08:34;14.60;99.90
13944;DHT22;7044;53.286;8.534;2022-07-05T05:11:01;14.50;99.90
13944;DHT22;7044;53.286;8.534;2022-07-05T05:13:27;14.90;99.90
13944;DHT22;7044;53.286;8.534;2022-07-05T05:15:54;14.70;99.90
13944;DHT22;7044;53.286;8.534;2022-07-05T05:18:21;14.90;99.90
13944;DHT22;7044;53.286;8.534;2022-07-05T05:20:54;14.90;99.90
13944;DHT22;7044;53.286;8.534;2022-07-05T05:23:21;14.70;99.90
13944;DHT22;7044;53.286;8.534;2022-07-05T05:25:48;14.90;99.90
13944;DHT22;7044;53.286;8.534;2022-07-05T05:28:15;14.70;99.90
13944;DHT22;7044;53.286;8.534;2022-07-05T05:30:42;14.90;99.90
13944;DHT22;7044;53.286;8.534;2022-07-05T05:33:08;15.20;99.90
13944;DHT22;7044;53.286;8.534;2022-07-05T05:35:35;15.10;99.90
13944;DHT22;7044;53.286;8.534;2022-07-05T05:38:03;15.30;99.90
13944;DHT22;7044;53.286;8.534;2022-07-05T05:40:30;15.00;99.90
13944;DHT22;7044;53.286;8.534;2022-07-05T05:42:58;15.10;99.90
13944;DHT22;7044;53.286;8.534;2022-07-05T05:45:26;15.20;99.90
13944;DHT22;7044;53.286;8.534;2022-07-05T05:47:55;15.20;99.90
13944;DHT22;7044;53.286;8.534;2022-07-05T05:50:24;15.00;99.90
13944;DHT22;7044;53.286;8.534;2022-07-05T05:52:51;15.20;99.90
13944;DHT22;7044;53.286;8.534;2022-07-05T05:55:22;15.30;99.90
13944;DHT22;7044;53.286;8.534;2022-07-05T05:57:49;15.40;99.90
13944;DHT22;7044;53.286;8.534;2022-07-05T06:00:17;15.50;99.90
13944;DHT22;7044;53.286;8.534;2022-07-05T06:02:46;15.50;99.90
13944;DHT22;7044;53.286;8.534;2022-07-05T06:05:14;15.50;99.90
13944;DHT22;7044;53.286;8.534;2022-07-05T06:07:48;15.50;99.90
13944;DHT22;7044;53.286;8.534;2022-07-05T06:10:18;15.60;99.90
13944;DHT22;7044;53.286;8.534;2022-07-05T06:12:47;15.70;99.90
13944;DHT22;7044;53.286;8.534;2022-07-05T06:15:14;15.80;99.90
13944;DHT22;7044;53.286;8.534;2022-07-05T06:17:40;15.80;99.90
13944;DHT22;7044;53.286;8.534;2022-07-05T06:20:11;16.00;99.90
13944;DHT22;7044;53.286;8.534;2022-07-05T06:22:39;16.00;99.90
13944;DHT22;7044;53.286;8.534;2022-07-05T06:25:06;15.90;99.90
13944;DHT22;7044;53.286;8.534;2022-07-05T06:27:38;16.30;99.90
13944;DHT22;7044;53.286;8.534;2022-07-05T06:30:08;16.10;99.90
13944;DHT22;7044;53.286;8.534;2022-07-05T06:32:35;16.20;99.90
13944;DHT22;7044;53.286;8.534;2022-07-05T06:35:03;16.00;99.90
13944;DHT22;7044;53.286;8.534;2022-07-05T06:37:40;13.60;99.90
13944;DHT22;7044;53.286;8.534;2022-07-05T06:40:07;16.40;99.90
13944;DHT22;7044;53.286;8.534;2022-07-05T06:42:35;16.40;99.90
13944;DHT22;7044;53.286;8.534;2022-07-05T06:45:02;16.60;99.90
13944;DHT22;7044;53.286;8.534;2022-07-05T06:47:30;16.50;99.90
13944;DHT22;7044;53.286;8.534;2022-07-05T06:49:57;16.60;99.90
13944;DHT22;7044;53.286;8.534;2022-07-05T06:52:25;16.60;99.90
13944;DHT22;7044;53.286;8.534;2022-07-05T06:54:52;16.70;99.90
13944;DHT22;7044;53.286;8.534;2022-07-05T06:57:19;16.70;99.90
13944;DHT22;7044;53.286;8.534;2022-07-05T06:59:46;16.80;99.90
13944;DHT22;7044;53.286;8.534;2022-07-05T07:02:13;17.10;99.90
13944;DHT22;7044;53.286;8.534;2022-07-05T07:04:41;16.90;99.90
13944;DHT22;7044;53.286;8.534;2022-07-05T07:07:08;17.00;99.90
13944;DHT22;7044;53.286;8.534;2022-07-05T07:09:56;16.90;99.90
13944;DHT22;7044;53.286;8.534;2022-07-05T07:12:22;17.00;99.90
13944;DHT22;7044;53.286;8.534;2022-07-05T07:14:49;17.00;99.90
13944;DHT22;7044;53.286;8.534;2022-07-05T07:17:16;17.10;99.90
13944;DHT22;7044;53.286;8.534;2022-07-05T07:19:44;17.10;99.90
13944;DHT22;7044;53.286;8.534;2022-07-05T07:22:11;17.10;99.90
13944;DHT22;7044;53.286;8.534;2022-07-05T07:24:38;17.00;99.90
13944;DHT22;7044;53.286;8.534;2022-07-05T07:27:05;17.20;99.90
13944;DHT22;7044;53.286;8.534;2022-07-05T07:29:34;17.30;99.90
13944;DHT22;7044;53.286;8.534;2022-07-05T07:32:02;17.40;99.90
13944;DHT22;7044;53.286;8.534;2022-07-05T07:34:29;17.40;99.90
13944;DHT22;7044;53.286;8.534;2022-07-05T07:36:58;17.50;99.90
13944;DHT22;7044;53.286;8.534;2022-07-05T07:39:26;17.50;99.90
13944;DHT22;7044;53.286;8.534;2022-07-05T07:41:53;17.50;99.90
13944;DHT22;7044;53.286;8.534;2022-07-05T07:44:20;19.00;99.90
13944;DHT22;7044;53.286;8.534;2022-07-05T07:46:47;17.40;99.90
13944;DHT22;7044;53.286;8.534;2022-07-05T07:49:14;17.40;99.90
13944;DHT22;7044;53.286;8.534;2022-07-05T07:51:41;14.20;99.90
13944;DHT22;7044;53.286;8.534;2022-07-05T07:54:09;17.40;99.90
13944;DHT22;7044;53.286;8.534;2022-07-05T07:56:36;17.50;99.90
13944;DHT22;7044;53.286;8.534;2022-07-05T07:59:03;17.60;99.90
13944;DHT22;7044;53.286;8.534;2022-07-05T08:01:29;19.30;99.90
13944;DHT22;7044;53.286;8.534;2022-07-05T08:03:56;18.00;99.90
13944;DHT22;7044;53.286;8.534;2022-07-05T08:06:23;17.60;99.90
13944;DHT22;7044;53.286;8.534;2022-07-05T08:08:50;17.90;99.90
13944;DHT22;7044;53.286;8.534;2022-07-05T08:11:18;17.80;99.90
13944;DHT22;7044;53.286;8.534;2022-07-05T08:13:45;18.00;99.90
13944;DHT22;7044;53.286;8.534;2022-07-05T08:16:13;18.00;99.90
13944;DHT22;7044;53.286;8.534;2022-07-05T08:18:40;18.00;99.90
13944;DHT22;7044;53.286;8.534;2022-07-05T08:21:26;18.10;99.90
13944;DHT22;7044;53.286;8.534;2022-07-05T08:24:03;18.20;99.90
13944;DHT22;7044;53.286;8.534;2022-07-05T08:26:31;18.20;99.90
13944;DHT22;7044;53.286;8.534;2022-07-05T08:28:58;18.30;99.90
13944;DHT22;7044;53.286;8.534;2022-07-05T08:31:27;18.30;99.90
13944;DHT22;7044;53.286;8.534;2022-07-05T08:33:55;18.40;99.90
13944;DHT22;7044;53.286;8.534;2022-07-05T08:36:23;18.30;99.90
13944;DHT22;7044;53.286;8.534;2022-07-05T08:38:50;18.30;99.90
13944;DHT22;7044;53.286;8.534;2022-07-05T08:41:18;18.20;99.90
13944;DHT22;7044;53.286;8.534;2022-07-05T08:43:48;18.20;99.90
13944;DHT22;7044;53.286;8.534;2022-07-05T08:46:16;18.10;99.90
13944;DHT22;7044;53.286;8.534;2022-07-05T08:48:44;18.10;99.90
13944;DHT22;7044;53.286;8.534;2022-07-05T08:51:14;17.20;99.90
13944;DHT22;7044;53.286;8.534;2022-07-05T08:53:43;18.20;99.90
13944;DHT22;7044;53.286;8.534;2022-07-05T08:56:12;18.20;99.90
13944;DHT22;7044;53.286;8.534;2022-07-05T08:58:40;18.30;99.90
13944;DHT22;7044;53.286;8.534;2022-07-05T09:01:09;18.40;99.90
13944;DHT22;7044;53.286;8.534;2022-07-05T09:03:39;18.60;99.90
13944;DHT22;7044;53.286;8.534;2022-07-05T09:06:08;18.50;99.90
13944;DHT22;7044;53.286;8.534;2022-07-05T09:08:36;18.40;99.90
13944;DHT22;7044;53.286;8.534;2022-07-05T09:18:42;18.50;99.90
13944;DHT22;7044;53.286;8.534;2022-07-05T09:21:17;18.40;99.90
13944;DHT22;7044;53.286;8.534;2022-07-05T09:23:44;18.80;99.90
13944;DHT22;7044;53.286;8.534;2022-07-05T09:26:11;18.70;99.90
13944;DHT22;7044;53.286;8.534;2022-07-05T09:28:54;18.90;99.90
13944;DHT22;7044;53.286;8.534;2022-07-05T09:31:29;18.70;99.90
13944;DHT22;7044;53.286;8.534;2022-07-05T09:34:07;18.80;99.90
13944;DHT22;7044;53.286;8.534;2022-07-05T09:36:52;18.70;99.90
13944;DHT22;7044;53.286;8.534;2022-07-05T09:39:36;18.70;99.90
13944;DHT22;7044;53.286;8.534;2022-07-05T09:42:14;18.90;99.90
13944;DHT22;7044;53.286;8.534;2022-07-05T09:44:43;19.10;99.90
13944;DHT22;7044;53.286;8.534;2022-07-05T09:47:12;19.00;99.90
13944;DHT22;7044;53.286;8.534;2022-07-05T09:49:43;18.90;99.90
13944;DHT22;7044;53.286;8.534;2022-07-05T09:52:11;18.90;99.90
13944;DHT22;7044;53.286;8.534;2022-07-05T09:54:38;19.00;99.90
13944;DHT22;7044;53.286;8.534;2022-07-05T09:57:06;19.20;99.90
13944;DHT22;7044;53.286;8.534;2022-07-05T09:59:32;19.20;99.90
13944;DHT22;7044;53.286;8.534;2022-07-05T10:01:59;19.40;99.90
13944;DHT22;7044;53.286;8.534;2022-07-05T10:04:26;19.10;99.90
13944;DHT22;7044;53.286;8.534;2022-07-05T10:06:54;19.10;99.90
13944;DHT22;7044;53.286;8.534;2022-07-05T10:09:21;19.30;99.90
13944;DHT22;7044;53.286;8.534;2022-07-05T10:11:49;19.10;99.90
13944;DHT22;7044;53.286;8.534;2022-07-05T10:14:19;19.20;99.90
13944;DHT22;7044;53.286;8.534;2022-07-05T10:16:56;18.80;99.90
13944;DHT22;7044;53.286;8.534;2022-07-05T10:19:28;18.80;99.90
13944;DHT22;7044;53.286;8.534;2022-07-05T10:21:57;18.70;99.90
13944;DHT22;7044;53.286;8.534;2022-07-05T10:24:25;18.80;99.90
13944;DHT22;7044;53.286;8.534;2022-07-05T10:26:53;19.00;99.90
13944;DHT22;7044;53.286;8.534;2022-07-05T10:29:20;19.10;99.90
13944;DHT22;7044;53.286;8.534;2022-07-05T10:31:47;19.50;99.90
13944;DHT22;7044;53.286;8.534;2022-07-05T10:34:15;19.40;99.90
13944;DHT22;7044;53.286;8.534;2022-07-05T10:36:42;19.50;99.90
13944;DHT22;7044;53.286;8.534;2022-07-05T10:39:10;19.50;99.90
13944;DHT22;7044;53.286;8.534;2022-07-05T10:41:37;20.30;99.90
13944;DHT22;7044;53.286;8.534;2022-07-05T10:44:05;19.80;99.90
13944;DHT22;7044;53.286;8.534;2022-07-05T10:46:34;19.80;99.90
13944;DHT22;7044;53.286;8.534;2022-07-05T10:49:11;19.90;99.90
13944;DHT22;7044;53.286;8.534;2022-07-05T10:51:38;20.00;99.90
13944;DHT22;7044;53.286;8.534;2022-07-05T10:54:06;20.00;99.90
13944;DHT22;7044;53.286;8.534;2022-07-05T10:56:34;20.10;99.90
13944;DHT22;7044;53.286;8.534;2022-07-05T10:59:09;20.10;99.90
13944;DHT22;7044;53.286;8.534;2022-07-05T11:01:41;20.10;99.90
13944;DHT22;7044;53.286;8.534;2022-07-05T11:04:27;20.20;99.90
13944;DHT22;7044;53.286;8.534;2022-07-05T11:06:58;20.00;99.90
13944;DHT22;7044;53.286;8.534;2022-07-05T11:09:25;19.90;99.90
13944;DHT22;7044;53.286;8.534;2022-07-05T11:12:17;19.80;99.90
13944;DHT22;7044;53.286;8.534;2022-07-05T11:14:45;19.80;99.90
13944;DHT22;7044;53.286;8.534;2022-07-05T11:17:18;19.70;99.90
13944;DHT22;7044;53.286;8.534;2022-07-05T11:20:10;19.70;99.90
13944;DHT22;7044;53.286;8.534;2022-07-05T11:22:38;19.70;99.90
13944;DHT22;7044;53.286;8.534;2022-07-05T11:25:08;19.60;99.90
13944;DHT22;7044;53.286;8.534;2022-07-05T11:28:04;19.70;99.90
13944;DHT22;7044;53.286;8.534;2022-07-05T11:30:47;19.50;99.90
13944;DHT22;7044;53.286;8.534;2022-07-05T11:33:28;19.40;99.90
13944;DHT22;7044;53.286;8.534;2022-07-05T11:35:56;19.40;99.90
13944;DHT22;7044;53.286;8.534;2022-07-05T11:38:23;19.40;99.90
13944;DHT22;7044;53.286;8.534;2022-07-05T11:40:50;19.50;99.90
13944;DHT22;7044;53.286;8.534;2022-07-05T11:43:26;19.50;99.90
13944;DHT22;7044;53.286;8.534;2022-07-05T11:45:57;19.50;99.90
13944;DHT22;7044;53.286;8.534;2022-07-05T11:48:26;19.60;99.90
13944;DHT22;7044;53.286;8.534;2022-07-05T11:50:53;19.70;99.90
13944;DHT22;7044;53.286;8.534;2022-07-05T11:53:27;19.80;99.90
13944;DHT22;7044;53.286;8.534;2022-07-05T11:55:55;19.90;99.90
13944;DHT22;7044;53.286;8.534;2022-07-05T11:58:31;20.10;99.90
13944;DHT22;7044;53.286;8.534;2022-07-05T12:00:59;20.20;99.90
13944;DHT22;7044;53.286;8.534;2022-07-05T12:03:27;20.20;99.90
13944;DHT22;7044;53.286;8.534;2022-07-05T12:05:54;20.20;99.90
13944;DHT22;7044;53.286;8.534;2022-07-05T12:08:21;20.10;99.90
13944;DHT22;7044;53.286;8.534;2022-07-05T12:10:48;20.00;99.90
13944;DHT22;7044;53.286;8.534;2022-07-05T12:13:44;19.60;99.90
13944;DHT22;7044;53.286;8.534;2022-07-05T12:16:12;19.70;99.90
13944;DHT22;7044;53.286;8.534;2022-07-05T12:18:52;19.90;99.90
13944;DHT22;7044;53.286;8.534;2022-07-05T12:21:20;20.10;99.90
13944;DHT22;7044;53.286;8.534;2022-07-05T12:23:48;19.90;99.90
13944;DHT22;7044;53.286;8.534;2022-07-05T12:26:16;20.10;99.90
13944;DHT22;7044;53.286;8.534;2022-07-05T12:28:45;19.90;99.90
13944;DHT22;7044;53.286;8.534;2022-07-05T12:31:17;19.90;99.90
13944;DHT22;7044;53.286;8.534;2022-07-05T12:33:43;19.80;99.90
13944;DHT22;7044;53.286;8.534;2022-07-05T12:36:11;20.50;99.90
13944;DHT22;7044;53.286;8.534;2022-07-05T12:38:39;20.40;99.90
13944;DHT22;7044;53.286;8.534;2022-07-05T12:41:06;20.60;99.90
13944;DHT22;7044;53.286;8.534;2022-07-05T12:43:32;20.60;99.90
13944;DHT22;7044;53.286;8.534;2022-07-05T12:46:02;20.80;99.90
13944;DHT22;7044;53.286;8.534;2022-07-05T12:48:30;20.50;99.90
13944;DHT22;7044;53.286;8.534;2022-07-05T12:50:57;20.40;99.90
13944;DHT22;7044;53.286;8.534;2022-07-05T12:53:24;20.30;99.90
13944;DHT22;7044;53.286;8.534;2022-07-05T12:56:10;20.20;99.90
13944;DHT22;7044;53.286;8.534;2022-07-05T12:58:56;20.30;99.90
13944;DHT22;7044;53.286;8.534;2022-07-05T13:01:25;20.40;99.90
13944;DHT22;7044;53.286;8.534;2022-07-05T13:03:58;20.90;99.90
13944;DHT22;7044;53.286;8.534;2022-07-05T13:06:39;20.60;99.90
13944;DHT22;7044;53.286;8.534;2022-07-05T13:09:06;19.90;99.90
13944;DHT22;7044;53.286;8.534;2022-07-05T13:11:33;19.50;99.90
13944;DHT22;7044;53.286;8.534;2022-07-05T13:14:00;20.40;99.90
13944;DHT22;7044;53.286;8.534;2022-07-05T13:16:29;20.40;99.90
13944;DHT22;7044;53.286;8.534;2022-07-05T13:19:06;20.50;99.90
13944;DHT22;7044;53.286;8.534;2022-07-05T13:21:33;20.30;99.90
13944;DHT22;7044;53.286;8.534;2022-07-05T13:24:00;20.50;99.90
13944;DHT22;7044;53.286;8.534;2022-07-05T13:26:28;20.60;99.90
13944;DHT22;7044;53.286;8.534;2022-07-05T13:28:54;20.50;99.90
13944;DHT22;7044;53.286;8.534;2022-07-05T13:31:25;20.50;99.90
13944;DHT22;7044;53.286;8.534;2022-07-05T13:33:55;20.30;99.90
13944;DHT22;7044;53.286;8.534;2022-07-05T13:36:22;20.60;99.90
13944;DHT22;7044;53.286;8.534;2022-07-05T13:38:49;20.60;99.90
13944;DHT22;7044;53.286;8.534;2022-07-05T13:41:16;20.40;99.90
13944;DHT22;7044;53.286;8.534;2022-07-05T13:43:43;19.00;99.90
13944;DHT22;7044;53.286;8.534;2022-07-05T13:46:10;20.20;99.90
13944;DHT22;7044;53.286;8.534;2022-07-05T13:48:37;22.00;99.90
13944;DHT22;7044;53.286;8.534;2022-07-05T13:51:06;20.40;99.90
13944;DHT22;7044;53.286;8.534;2022-07-05T13:53:32;19.80;99.90
13944;DHT22;7044;53.286;8.534;2022-07-05T13:56:02;19.50;99.90
13944;DHT22;7044;53.286;8.534;2022-07-05T13:58:29;19.70;99.90
13944;DHT22;7044;53.286;8.534;2022-07-05T14:00:56;19.30;99.90
13944;DHT22;7044;53.286;8.534;2022-07-05T14:03:23;19.00;99.90
13944;DHT22;7044;53.286;8.534;2022-07-05T14:05:50;18.90;99.90
13944;DHT22;7044;53.286;8.534;2022-07-05T14:08:18;18.70;99.90
13944;DHT22;7044;53.286;8.534;2022-07-05T14:10:47;18.70;99.90
13944;DHT22;7044;53.286;8.534;2022-07-05T14:13:17;18.60;99.90
13944;DHT22;7044;53.286;8.534;2022-07-05T14:15:44;18.80;99.90
13944;DHT22;7044;53.286;8.534;2022-07-05T14:18:11;18.80;99.90
13944;DHT22;7044;53.286;8.534;2022-07-05T14:20:38;18.80;99.90
13944;DHT22;7044;53.286;8.534;2022-07-05T14:23:05;18.80;99.90
13944;DHT22;7044;53.286;8.534;2022-07-05T14:25:33;18.90;99.90
13944;DHT22;7044;53.286;8.534;2022-07-05T14:32:55;19.10;99.90
13944;DHT22;7044;53.286;8.534;2022-07-05T14:35:22;19.20;99.90
13944;DHT22;7044;53.286;8.534;2022-07-05T14:37:49;19.20;99.90
13944;DHT22;7044;53.286;8.534;2022-07-05T14:40:16;18.90;99.90
13944;DHT22;7044;53.286;8.534;2022-07-05T14:42:45;19.20;99.90
13944;DHT22;7044;53.286;8.534;2022-07-05T14:45:12;19.00;99.90
13944;DHT22;7044;53.286;8.534;2022-07-05T14:47:38;19.00;99.90
13944;DHT22;7044;53.286;8.534;2022-07-05T14:50:06;18.90;99.90
13944;DHT22;7044;53.286;8.534;2022-07-05T14:52:32;18.90;99.90
13944;DHT22;7044;53.286;8.534;2022-07-05T14:54:59;15.90;99.90
13944;DHT22;7044;53.286;8.534;2022-07-05T14:57:26;18.90;99.90
13944;DHT22;7044;53.286;8.534;2022-07-05T14:59:55;19.20;99.90
13944;DHT22;7044;53.286;8.534;2022-07-05T15:02:21;19.50;99.90
13944;DHT22;7044;53.286;8.534;2022-07-05T15:04:48;19.60;99.90
13944;DHT22;7044;53.286;8.534;2022-07-05T15:07:15;19.50;99.90
13944;DHT22;7044;53.286;8.534;2022-07-05T15:09:42;19.80;99.90
13944;DHT22;7044;53.286;8.534;2022-07-05T15:12:09;19.70;99.90
13944;DHT22;7044;53.286;8.534;2022-07-05T15:14:36;19.70;99.90
13944;DHT22;7044;53.286;8.534;2022-07-05T15:17:04;19.80;99.90
13944;DHT22;7044;53.286;8.534;2022-07-05T15:19:31;19.90;99.90
13944;DHT22;7044;53.286;8.534;2022-07-05T15:21:58;19.70;99.90
13944;DHT22;7044;53.286;8.534;2022-07-05T15:24:25;19.60;99.90
13944;DHT22;7044;53.286;8.534;2022-07-05T15:26:52;19.60;99.90
13944;DHT22;7044;53.286;8.534;2022-07-05T15:29:18;19.30;99.90
13944;DHT22;7044;53.286;8.534;2022-07-05T15:31:45;18.70;99.90
13944;DHT22;7044;53.286;8.534;2022-07-05T15:34:14;18.90;99.90
13944;DHT22;7044;53.286;8.534;2022-07-05T15:36:40;19.10;99.90
13944;DHT22;7044;53.286;8.534;2022-07-05T15:39:07;19.10;99.90
13944;DHT22;7044;53.286;8.534;2022-07-05T15:41:34;19.00;99.90
13944;DHT22;7044;53.286;8.534;2022-07-05T15:44:02;18.90;99.90
13944;DHT22;7044;53.286;8.534;2022-07-05T15:46:29;18.90;99.90
13944;DHT22;7044;53.286;8.534;2022-07-05T15:49:18;18.90;99.90
13944;DHT22;7044;53.286;8.534;2022-07-05T15:54:12;18.90;99.90
13944;DHT22;7044;53.286;8.534;2022-07-05T15:56:39;18.80;99.90
13944;DHT22;7044;53.286;8.534;2022-07-05T15:59:07;17.60;99.90
13944;DHT22;7044;53.286;8.534;2022-07-05T16:01:34;18.80;99.90
13944;DHT22;7044;53.286;8.534;2022-07-05T16:04:00;18.80;99.90
13944;DHT22;7044;53.286;8.534;2022-07-05T16:06:28;18.80;99.90
13944;DHT22;7044;53.286;8.534;2022-07-05T16:08:55;18.80;99.90
13944;DHT22;7044;53.286;8.534;2022-07-05T16:18:45;18.70;99.90
13944;DHT22;7044;53.286;8.534;2022-07-05T16:21:13;18.70;99.90